createdAt,value
2022-12-04T00:00:34.813Z,32.60
2022-12-04T00:01:34.786Z,32.20
2022-12-04T00:02:34.881Z,30.80
2022-12-04T00:03:34.769Z,30.80
2022-12-04T00:04:34.900Z,32.00
2022-12-04T00:05:34.741Z,31.60
2022-12-04T00:06:34.908Z,29.30
2022-12-04T00:07:34.730Z,31.50
2022-12-04T00:08:35.893Z,31.80
2022-12-04T00:09:34.676Z,32.30
2022-12-04T00:10:34.880Z,31.70
2022-12-04T00:11:34.666Z,30.90
2022-12-04T00:12:34.688Z,30.90
2022-12-04T00:13:34.672Z,29.90
2022-12-04T00:14:49.044Z,31.60
2022-12-04T00:15:35.731Z,32.60
2022-12-04T00:16:34.680Z,30.40
2022-12-04T00:17:34.584Z,33.10
2022-12-04T00:18:34.730Z,30.30
2022-12-04T00:19:34.598Z,33.50
2022-12-04T00:20:34.744Z,32.90
2022-12-04T00:21:34.568Z,33.60
2022-12-04T00:22:34.565Z,30.70
2022-12-04T00:23:34.527Z,32.50
2022-12-04T00:24:34.615Z,31.90
2022-12-04T00:25:40.736Z,30.80
2022-12-04T00:26:35.667Z,31.50
2022-12-04T00:27:34.478Z,28.40
2022-12-04T00:28:34.594Z,32.10
2022-12-04T00:29:34.486Z,31.30
2022-12-04T00:30:34.605Z,31.80
2022-12-04T00:31:34.581Z,30.50
2022-12-04T00:32:35.644Z,29.70
2022-12-04T00:33:34.407Z,29.80
2022-12-04T00:34:34.429Z,31.90
2022-12-04T00:35:34.396Z,30.60
2022-12-04T00:36:34.436Z,31.00
2022-12-04T00:37:34.423Z,30.60
2022-12-04T00:38:34.456Z,31.30
2022-12-04T00:39:34.350Z,30.10
2022-12-04T00:40:34.474Z,30.30
2022-12-04T00:41:34.335Z,31.10
2022-12-04T00:42:35.507Z,30.80
2022-12-04T00:43:34.326Z,29.40
2022-12-04T00:44:34.288Z,30.00
2022-12-04T00:45:34.315Z,30.40
2022-12-04T00:46:34.305Z,31.00
2022-12-04T00:47:34.286Z,30.40
2022-12-04T00:48:34.320Z,30.60
2022-12-04T00:49:34.247Z,30.30
2022-12-04T00:50:34.328Z,32.90
2022-12-04T00:51:34.238Z,31.20
2022-12-04T00:52:34.341Z,32.60
2022-12-04T00:53:34.214Z,28.30
2022-12-04T00:54:34.356Z,30.70
2022-12-04T00:55:34.177Z,32.10
2022-12-04T00:56:35.240Z,31.20
2022-12-04T00:57:34.157Z,30.60
2022-12-04T00:58:34.180Z,31.50
2022-12-04T00:59:34.132Z,31.90
2022-12-04T01:00:34.194Z,32.10
2022-12-04T01:01:34.192Z,31.50
2022-12-04T01:02:34.309Z,30.70
2022-12-04T01:03:34.196Z,30.90
2022-12-04T01:04:34.085Z,31.90
2022-12-04T01:05:34.074Z,30.20
2022-12-04T01:06:34.290Z,29.90
2022-12-04T01:07:34.099Z,29.60
2022-12-04T01:08:34.251Z,29.70
2022-12-04T01:09:34.046Z,30.20
2022-12-04T01:10:34.055Z,30.50
2022-12-04T01:11:34.011Z,28.90
2022-12-04T01:12:34.091Z,28.30
2022-12-04T01:13:33.984Z,30.40
2022-12-04T01:14:34.115Z,32.10
2022-12-04T01:15:33.960Z,29.70
2022-12-04T01:16:34.181Z,28.80
2022-12-04T01:17:33.943Z,29.50
2022-12-04T01:18:34.112Z,32.70
2022-12-04T01:19:33.917Z,31.70
2022-12-04T01:20:33.979Z,28.40
2022-12-04T01:21:33.901Z,32.60
2022-12-04T01:22:33.934Z,29.20
2022-12-04T01:23:33.853Z,28.70
2022-12-04T01:24:33.855Z,29.20
2022-12-04T01:25:33.955Z,26.40
2022-12-04T01:26:33.868Z,27.10
2022-12-04T01:27:33.963Z,28.20
2022-12-04T01:28:33.844Z,28.90
2022-12-04T01:29:33.976Z,28.20
2022-12-04T01:30:33.792Z,28.90
2022-12-04T01:31:33.913Z,30.20
2022-12-04T01:32:33.792Z,27.30
2022-12-04T01:33:33.784Z,28.80
2022-12-04T01:34:33.860Z,28.80
2022-12-04T01:35:33.757Z,29.10
2022-12-04T01:36:33.824Z,26.30
2022-12-04T01:37:33.736Z,27.70
2022-12-04T01:38:33.839Z,28.10
2022-12-04T01:39:33.705Z,25.70
2022-12-04T01:40:33.846Z,25.90
2022-12-04T01:41:33.677Z,27.60
2022-12-04T01:42:33.867Z,28.80
2022-12-04T01:43:33.673Z,27.50
2022-12-04T01:44:33.685Z,27.30
2022-12-04T01:45:33.684Z,28.10
2022-12-04T01:46:34.718Z,28.70
2022-12-04T01:47:33.614Z,27.30
2022-12-04T01:48:33.696Z,27.00
2022-12-04T01:49:33.609Z,25.60
2022-12-04T01:50:33.712Z,28.30
2022-12-04T01:51:33.726Z,28.70
2022-12-04T01:52:33.561Z,26.40
2022-12-04T01:53:33.793Z,25.70
2022-12-04T01:54:33.528Z,26.80
2022-12-04T01:55:33.749Z,26.70
2022-12-04T01:56:33.532Z,27.10
2022-12-04T01:57:33.573Z,27.30
2022-12-04T01:58:33.492Z,28.20
2022-12-04T01:59:33.488Z,26.30
2022-12-04T02:00:33.489Z,28.60
2022-12-04T02:01:33.714Z,26.80
2022-12-04T02:02:33.545Z,27.00
2022-12-04T02:03:33.597Z,26.10
2022-12-04T02:04:33.422Z,24.90
2022-12-04T02:05:33.625Z,28.50
2022-12-04T02:06:33.400Z,27.00
2022-12-04T02:07:33.504Z,25.10
2022-12-04T02:08:33.420Z,25.80
2022-12-04T02:09:33.487Z,27.90
2022-12-04T02:10:33.359Z,28.80
2022-12-04T02:11:33.350Z,26.50
2022-12-04T02:12:33.456Z,26.00
2022-12-04T02:13:33.353Z,24.40
2022-12-04T02:14:33.465Z,25.10
2022-12-04T02:15:33.309Z,26.60
2022-12-04T02:16:33.530Z,24.00
2022-12-04T02:17:33.291Z,25.40
2022-12-04T02:18:33.275Z,27.20
2022-12-04T02:19:33.287Z,25.90
2022-12-04T02:20:33.301Z,29.50
2022-12-04T02:21:33.245Z,26.70
2022-12-04T02:22:33.310Z,25.40
2022-12-04T02:23:33.252Z,25.00
2022-12-04T02:24:33.330Z,23.10
2022-12-04T02:25:33.205Z,25.80
2022-12-04T02:26:33.346Z,26.20
2022-12-04T02:27:33.184Z,24.30
2022-12-04T02:28:33.356Z,23.50
2022-12-04T02:29:33.174Z,24.80
2022-12-04T02:30:33.226Z,25.50
2022-12-04T02:31:33.162Z,25.60
2022-12-04T02:32:33.199Z,25.80
2022-12-04T02:33:33.111Z,25.30
2022-12-04T02:34:33.192Z,27.00
2022-12-04T02:35:33.094Z,26.80
2022-12-04T02:36:33.263Z,26.50
2022-12-04T02:37:33.090Z,26.10
2022-12-04T02:38:33.290Z,26.10
2022-12-04T02:39:33.041Z,26.00
2022-12-04T02:40:33.234Z,25.10
2022-12-04T02:41:33.047Z,24.00
2022-12-04T02:42:33.046Z,24.30
2022-12-04T02:43:33.009Z,25.00
2022-12-04T02:44:33.014Z,24.20
2022-12-04T02:45:33.006Z,24.80
2022-12-04T02:46:33.069Z,25.00
2022-12-04T02:47:32.958Z,23.10
2022-12-04T02:48:33.105Z,25.10
2022-12-04T02:49:32.942Z,25.30
2022-12-04T02:50:32.952Z,24.40
2022-12-04T02:51:32.916Z,24.00
2022-12-04T02:52:33.106Z,24.80
2022-12-04T02:53:32.910Z,24.00
2022-12-04T02:54:32.918Z,23.60
2022-12-04T02:55:32.969Z,24.30
2022-12-04T02:56:32.989Z,23.60
2022-12-04T02:57:32.875Z,24.10
2022-12-04T02:58:36.235Z,24.10
2022-12-04T02:59:32.834Z,24.50
2022-12-04T03:00:32.961Z,23.30
2022-12-04T03:01:32.905Z,22.00
2022-12-04T03:02:33.007Z,22.90
2022-12-04T03:03:32.828Z,23.10
2022-12-04T03:04:32.800Z,22.10
2022-12-04T03:05:32.771Z,22.50
2022-12-04T03:06:32.790Z,20.20
2022-12-04T03:07:32.778Z,21.80
2022-12-04T03:08:32.807Z,22.40
2022-12-04T03:09:32.768Z,19.70
2022-12-04T03:10:32.879Z,18.80
2022-12-04T03:11:32.704Z,18.90
2022-12-04T03:12:32.830Z,20.40
2022-12-04T03:13:32.686Z,20.70
2022-12-04T03:14:32.846Z,21.50
2022-12-04T03:15:32.658Z,20.30
2022-12-04T03:16:32.756Z,18.60
2022-12-04T03:17:32.673Z,18.80
2022-12-04T03:18:32.626Z,19.20
2022-12-04T03:19:32.683Z,19.00
2022-12-04T03:20:32.649Z,19.90
2022-12-04T03:21:32.686Z,19.70
2022-12-04T03:22:32.588Z,19.90
2022-12-04T03:23:32.707Z,18.70
2022-12-04T03:24:32.712Z,19.50
2022-12-04T03:25:32.570Z,19.10
2022-12-04T03:26:32.779Z,21.90
2022-12-04T03:27:32.643Z,19.90
2022-12-04T03:28:32.744Z,19.90
2022-12-04T03:29:32.507Z,19.20
2022-12-04T03:30:32.673Z,21.20
2022-12-04T03:31:32.492Z,23.80
2022-12-04T03:32:32.498Z,21.30
2022-12-04T03:33:32.469Z,21.70
2022-12-04T03:34:32.467Z,22.10
2022-12-04T03:35:32.447Z,22.40
2022-12-04T03:36:32.664Z,21.10
2022-12-04T03:37:32.425Z,22.00
2022-12-04T03:38:32.654Z,21.20
2022-12-04T03:39:32.414Z,22.80
2022-12-04T03:40:32.609Z,26.30
2022-12-04T03:41:32.384Z,23.50
2022-12-04T03:42:32.480Z,22.20
2022-12-04T03:43:32.352Z,23.70
2022-12-04T03:44:32.344Z,22.00
2022-12-04T03:45:32.444Z,22.10
2022-12-04T03:46:32.435Z,21.80
2022-12-04T03:47:32.580Z,22.80
2022-12-04T03:48:32.321Z,23.90
2022-12-04T03:49:32.298Z,25.30
2022-12-04T03:50:32.474Z,24.00
2022-12-04T03:51:32.273Z,23.60
2022-12-04T03:52:32.362Z,22.80
2022-12-04T03:53:32.253Z,23.80
2022-12-04T03:54:32.351Z,24.90
2022-12-04T03:55:32.228Z,22.30
2022-12-04T03:56:32.316Z,24.10
2022-12-04T03:57:32.211Z,22.70
2022-12-04T03:58:32.327Z,22.10
2022-12-04T03:59:32.193Z,22.40
2022-12-04T04:00:32.408Z,23.50
2022-12-04T04:01:32.239Z,25.80
2022-12-04T04:02:32.457Z,23.50
2022-12-04T04:03:32.136Z,24.60
2022-12-04T04:04:32.146Z,23.90
2022-12-04T04:05:32.223Z,22.00
2022-12-04T04:06:32.109Z,25.30
2022-12-04T04:07:35.503Z,24.80
2022-12-04T04:08:32.224Z,22.30
2022-12-04T04:09:32.196Z,23.40
2022-12-04T04:10:32.071Z,25.30
2022-12-04T04:11:32.206Z,22.70
2022-12-04T04:12:32.140Z,24.40
2022-12-04T04:13:32.246Z,22.10
2022-12-04T04:14:32.022Z,23.90
2022-12-04T04:15:32.069Z,21.70
2022-12-04T04:16:32.071Z,25.00
2022-12-04T04:17:37.977Z,26.20
2022-12-04T04:18:32.992Z,23.60
2022-12-04T04:19:32.056Z,24.10
2022-12-04T04:20:31.965Z,22.20
2022-12-04T04:21:32.122Z,22.20
2022-12-04T04:22:31.936Z,24.00
2022-12-04T04:23:32.086Z,23.60
2022-12-04T04:24:31.954Z,24.00
2022-12-04T04:25:31.944Z,24.50
2022-12-04T04:26:31.895Z,23.10
2022-12-04T04:27:31.954Z,22.10
2022-12-04T04:28:31.879Z,23.90
2022-12-04T04:29:31.920Z,22.90
2022-12-04T04:30:31.847Z,23.20
2022-12-04T04:31:32.076Z,21.80
2022-12-04T04:32:31.872Z,21.90
2022-12-04T04:33:31.990Z,21.40
2022-12-04T04:34:31.820Z,21.30
2022-12-04T04:35:31.966Z,23.60
2022-12-04T04:36:31.812Z,22.70
2022-12-04T04:37:31.770Z,22.40
2022-12-04T04:38:31.823Z,22.50
2022-12-04T04:39:54.187Z,23.30
2022-12-04T04:40:31.751Z,22.10
2022-12-04T04:41:31.852Z,23.80
2022-12-04T04:42:31.728Z,19.90
2022-12-04T04:43:31.807Z,21.00
2022-12-04T04:44:31.694Z,22.10
2022-12-04T04:45:31.825Z,23.70
2022-12-04T04:46:31.720Z,22.80
2022-12-04T04:47:32.924Z,23.50
2022-12-04T04:48:31.659Z,21.50
2022-12-04T04:49:31.850Z,22.90
2022-12-04T04:50:31.649Z,22.90
2022-12-04T04:51:31.626Z,22.00
2022-12-04T04:52:31.656Z,22.10
2022-12-04T04:53:31.675Z,23.20
2022-12-04T04:54:31.678Z,20.90
2022-12-04T04:55:31.617Z,23.70
2022-12-04T04:56:33.635Z,19.50
2022-12-04T04:57:31.622Z,24.30
2022-12-04T04:58:31.535Z,21.60
2022-12-04T04:59:31.720Z,21.00
2022-12-04T05:00:31.528Z,21.70
2022-12-04T05:01:31.577Z,21.20
2022-12-04T05:02:31.658Z,22.60
2022-12-04T05:03:31.559Z,20.90
2022-12-04T05:04:31.506Z,21.80
2022-12-04T05:05:31.477Z,22.80
2022-12-04T05:06:31.516Z,22.70
2022-12-04T05:07:31.578Z,24.50
2022-12-04T05:08:31.595Z,22.90
2022-12-04T05:09:31.436Z,22.80
2022-12-04T05:10:31.434Z,23.60
2022-12-04T05:11:31.455Z,25.10
2022-12-04T05:12:31.408Z,24.40
2022-12-04T05:13:39.268Z,22.20
2022-12-04T05:14:31.375Z,22.20
2022-12-04T05:15:32.438Z,23.20
2022-12-04T05:16:31.463Z,24.20
2022-12-04T05:17:52.347Z,23.50
2022-12-04T05:18:31.336Z,21.30
2022-12-04T05:19:31.437Z,24.60
2022-12-04T05:20:31.316Z,23.10
2022-12-04T05:21:31.342Z,22.30
2022-12-04T05:22:31.376Z,21.10
2022-12-04T05:23:31.466Z,21.20
2022-12-04T05:24:31.468Z,20.90
2022-12-04T05:25:31.261Z,21.80
2022-12-04T05:26:31.275Z,22.90
2022-12-04T05:27:31.323Z,21.60
2022-12-04T05:28:31.278Z,20.30
2022-12-04T05:29:35.737Z,22.60
2022-12-04T05:30:31.310Z,22.60
2022-12-04T05:31:31.363Z,21.80
2022-12-04T05:32:31.176Z,25.10
2022-12-04T05:33:31.342Z,21.50
2022-12-04T05:34:31.161Z,22.00
2022-12-04T05:35:31.191Z,22.50
2022-12-04T05:36:31.137Z,21.90
2022-12-04T05:37:31.147Z,21.90
2022-12-04T05:38:31.153Z,23.10
2022-12-04T05:39:31.115Z,24.00
2022-12-04T05:40:31.100Z,21.60
2022-12-04T05:41:32.251Z,21.70
2022-12-04T05:42:31.080Z,22.60
2022-12-04T05:43:31.234Z,23.30
2022-12-04T05:44:31.059Z,22.40
2022-12-04T05:45:31.201Z,22.30
2022-12-04T05:46:31.091Z,22.20
2022-12-04T05:47:31.303Z,23.30
2022-12-04T05:48:31.010Z,22.90
2022-12-04T05:49:31.048Z,25.40
2022-12-04T05:50:30.991Z,23.90
2022-12-04T05:51:30.975Z,21.60
2022-12-04T05:52:30.994Z,22.20
2022-12-04T05:53:31.064Z,21.90
2022-12-04T05:54:30.945Z,19.00
2022-12-04T05:55:30.938Z,21.90
2022-12-04T05:56:30.939Z,20.80
2022-12-04T05:57:34.307Z,22.70
2022-12-04T05:58:30.908Z,23.50
2022-12-04T05:59:30.931Z,21.30
2022-12-04T06:00:30.918Z,23.00
2022-12-04T06:01:31.008Z,20.00
2022-12-04T06:02:31.021Z,23.70
2022-12-04T06:03:31.068Z,22.10
2022-12-04T06:04:30.843Z,21.40
2022-12-04T06:05:30.844Z,20.30
2022-12-04T06:06:30.899Z,22.60
2022-12-04T06:07:30.822Z,20.70
2022-12-04T06:08:30.984Z,20.60
2022-12-04T06:09:30.796Z,19.70
2022-12-04T06:10:30.852Z,20.90
2022-12-04T06:11:30.753Z,21.40
2022-12-04T06:12:30.873Z,22.60
2022-12-04T06:13:30.735Z,22.90
2022-12-04T06:14:33.742Z,20.10
2022-12-04T06:15:31.748Z,23.60
2022-12-04T06:16:30.815Z,21.50
2022-12-04T06:17:30.707Z,21.90
2022-12-04T06:18:30.700Z,20.30
2022-12-04T06:19:30.678Z,20.90
2022-12-04T06:20:30.743Z,19.50
2022-12-04T06:21:30.667Z,22.20
2022-12-04T06:22:30.731Z,20.90
2022-12-04T06:23:30.629Z,20.80
2022-12-04T06:24:31.771Z,19.90
2022-12-04T06:25:30.606Z,19.70
2022-12-04T06:26:30.762Z,18.00
2022-12-04T06:27:30.600Z,18.60
2022-12-04T06:28:30.775Z,20.00
2022-12-04T06:29:30.578Z,18.10
2022-12-04T06:30:30.585Z,20.00
2022-12-04T06:31:30.626Z,18.20
2022-12-04T06:32:30.529Z,18.50
2022-12-04T06:33:30.603Z,17.30
2022-12-04T06:34:30.516Z,18.00
2022-12-04T06:35:30.667Z,18.80
2022-12-04T06:36:30.491Z,17.80
2022-12-04T06:37:30.647Z,19.30
2022-12-04T06:38:30.638Z,17.60
2022-12-04T06:39:30.459Z,17.40
2022-12-04T06:40:30.502Z,18.00
2022-12-04T06:41:30.437Z,18.20
2022-12-04T06:42:30.541Z,18.80
2022-12-04T06:43:30.413Z,18.00
2022-12-04T06:44:30.474Z,16.80
2022-12-04T06:45:30.524Z,16.20
2022-12-04T06:46:30.370Z,16.00
2022-12-04T06:47:30.515Z,15.60
2022-12-04T06:48:30.387Z,16.90
2022-12-04T06:49:30.508Z,17.00
2022-12-04T06:50:30.337Z,15.20
2022-12-04T06:51:30.526Z,16.50
2022-12-04T06:52:30.308Z,17.10
2022-12-04T06:53:30.342Z,17.10
2022-12-04T06:54:30.311Z,16.10
2022-12-04T06:55:30.347Z,16.10
2022-12-04T06:56:30.268Z,15.60
2022-12-04T06:57:30.424Z,17.50
2022-12-04T06:58:30.381Z,14.60
2022-12-04T06:59:30.253Z,14.30
2022-12-04T07:00:30.465Z,16.90
2022-12-04T07:01:30.308Z,16.00
2022-12-04T07:02:30.480Z,13.80
2022-12-04T07:03:30.213Z,15.90
2022-12-04T07:04:30.203Z,16.20
2022-12-04T07:05:30.258Z,14.00
2022-12-04T07:06:30.179Z,15.60
2022-12-04T07:07:30.305Z,14.40
2022-12-04T07:08:30.134Z,15.20
2022-12-04T07:09:30.240Z,14.10
2022-12-04T07:10:30.219Z,14.80
2022-12-04T07:11:30.298Z,17.80
2022-12-04T07:12:30.113Z,14.50
2022-12-04T07:13:30.259Z,15.70
2022-12-04T07:14:30.068Z,14.30
2022-12-04T07:15:30.278Z,14.10
2022-12-04T07:16:32.800Z,15.80
2022-12-04T07:17:31.166Z,14.10
2022-12-04T07:18:30.028Z,13.80
2022-12-04T07:19:30.179Z,14.70
2022-12-04T07:20:30.070Z,13.40
2022-12-04T07:21:30.114Z,14.40
2022-12-04T07:22:30.002Z,15.10
2022-12-04T07:23:30.177Z,14.50
2022-12-04T07:24:29.992Z,14.40
2022-12-04T07:25:29.958Z,15.80
2022-12-04T07:26:29.952Z,15.30
2022-12-04T07:27:30.148Z,13.50
2022-12-04T07:28:29.941Z,15.30
2022-12-04T07:29:30.017Z,13.60
2022-12-04T07:30:30.059Z,14.90
2022-12-04T07:31:30.164Z,13.30
2022-12-04T07:32:29.980Z,13.20
2022-12-04T07:33:29.907Z,14.10
2022-12-04T07:34:30.044Z,13.00
2022-12-04T07:35:29.868Z,14.90
2022-12-04T07:36:29.836Z,13.90
2022-12-04T07:37:29.823Z,13.70
2022-12-04T07:38:30.024Z,14.00
2022-12-04T07:39:29.876Z,13.40
2022-12-04T07:40:29.847Z,15.10
2022-12-04T07:41:29.841Z,13.60
2022-12-04T07:42:29.815Z,13.40
2022-12-04T07:43:29.856Z,13.10
2022-12-04T07:44:29.763Z,14.10
2022-12-04T07:45:29.938Z,15.00
2022-12-04T07:46:29.815Z,14.00
2022-12-04T07:47:29.878Z,15.50
2022-12-04T07:48:33.333Z,12.80
2022-12-04T07:49:29.743Z,14.90
2022-12-04T07:50:29.727Z,14.20
2022-12-04T07:51:29.706Z,13.00
2022-12-04T07:52:29.652Z,15.00
2022-12-04T07:53:29.662Z,13.10
2022-12-04T07:54:29.655Z,14.70
2022-12-04T07:55:29.644Z,14.20
2022-12-04T07:56:29.612Z,14.80
2022-12-04T07:57:29.662Z,14.80
2022-12-04T07:58:29.591Z,14.20
2022-12-04T07:59:29.583Z,13.60
2022-12-04T08:00:29.611Z,16.60
2022-12-04T08:01:29.743Z,14.60
2022-12-04T08:02:29.592Z,17.00
2022-12-04T08:03:30.596Z,15.40
2022-12-04T08:04:29.590Z,13.00
2022-12-04T08:05:29.590Z,14.70
2022-12-04T08:06:29.508Z,13.40
2022-12-04T08:07:29.614Z,14.70
2022-12-04T08:08:29.480Z,13.60
2022-12-04T08:09:29.477Z,14.10
2022-12-04T08:10:29.508Z,15.20
2022-12-04T08:11:29.458Z,12.40
2022-12-04T08:12:29.454Z,12.40
2022-12-04T08:13:29.638Z,12.80
2022-12-04T08:14:29.421Z,13.20
2022-12-04T08:15:29.461Z,14.70
2022-12-04T08:16:29.480Z,12.70
2022-12-04T08:17:29.576Z,13.00
2022-12-04T08:18:29.383Z,14.30
2022-12-04T08:19:29.389Z,15.30
2022-12-04T08:20:29.437Z,15.30
2022-12-04T08:21:29.356Z,14.00
2022-12-04T08:22:29.352Z,15.00
2022-12-04T08:23:29.348Z,15.50
2022-12-04T08:24:29.326Z,16.20
2022-12-04T08:25:29.303Z,17.50
2022-12-04T08:26:29.287Z,15.10
2022-12-04T08:27:29.280Z,15.10
2022-12-04T08:28:29.334Z,14.00
2022-12-04T08:29:29.274Z,14.00
2022-12-04T08:30:29.306Z,15.10
2022-12-04T08:31:29.347Z,12.90
2022-12-04T08:32:29.224Z,13.40
2022-12-04T08:33:29.241Z,12.60
2022-12-04T08:34:29.222Z,13.90
2022-12-04T08:35:29.191Z,12.50
2022-12-04T08:36:29.186Z,14.90
2022-12-04T08:37:29.167Z,13.90
2022-12-04T08:38:29.200Z,13.00
2022-12-04T08:39:29.198Z,12.30
2022-12-04T08:40:29.131Z,14.90
2022-12-04T08:41:29.133Z,14.00
2022-12-04T08:42:29.107Z,13.40
2022-12-04T08:43:29.284Z,11.40
2022-12-04T08:44:29.089Z,13.10
2022-12-04T08:45:29.279Z,13.30
2022-12-04T08:46:29.178Z,13.20
2022-12-04T08:47:29.058Z,12.20
2022-12-04T08:48:29.060Z,11.70
2022-12-04T08:49:29.038Z,12.80
2022-12-04T08:50:29.061Z,12.50
2022-12-04T08:51:29.115Z,13.20
2022-12-04T08:52:29.037Z,14.00
2022-12-04T08:53:29.023Z,13.60
2022-12-04T08:54:34.441Z,14.70
2022-12-04T08:55:30.030Z,13.80
2022-12-04T08:56:29.170Z,11.90
2022-12-04T08:57:29.011Z,14.30
2022-12-04T08:58:29.192Z,12.30
2022-12-04T08:59:28.933Z,12.20
2022-12-04T09:00:28.997Z,10.90
2022-12-04T09:01:29.235Z,11.00
2022-12-04T09:02:28.900Z,11.30
2022-12-04T09:03:31.071Z,12.20
2022-12-04T09:04:28.960Z,12.90
2022-12-04T09:05:29.051Z,12.30
2022-12-04T09:06:28.908Z,12.90
2022-12-04T09:07:29.037Z,12.20
2022-12-04T09:08:28.822Z,13.00
2022-12-04T09:09:28.852Z,12.50
2022-12-04T09:10:28.799Z,12.20
2022-12-04T09:11:28.880Z,12.10
2022-12-04T09:12:28.800Z,12.00
2022-12-04T09:13:28.821Z,11.50
2022-12-04T09:14:28.760Z,11.70
2022-12-04T09:15:28.862Z,10.20
2022-12-04T09:16:28.806Z,11.80
2022-12-04T09:17:28.760Z,12.10
2022-12-04T09:18:28.763Z,12.20
2022-12-04T09:19:28.861Z,12.40
2022-12-04T09:20:28.696Z,13.10
2022-12-04T09:21:28.879Z,11.10
2022-12-04T09:22:45.606Z,13.20
2022-12-04T09:23:29.733Z,11.80
2022-12-04T09:24:28.657Z,12.20
2022-12-04T09:25:28.673Z,11.10
2022-12-04T09:26:28.645Z,12.00
2022-12-04T09:27:28.706Z,12.30
2022-12-04T09:28:28.640Z,11.80
2022-12-04T09:29:28.808Z,11.20
2022-12-04T09:30:28.614Z,11.50
2022-12-04T09:31:28.716Z,13.10
2022-12-04T09:32:28.563Z,11.90
2022-12-04T09:33:28.586Z,11.30
2022-12-04T09:34:28.591Z,12.70
2022-12-04T09:35:28.560Z,11.70
2022-12-04T09:36:28.524Z,11.80
2022-12-04T09:37:28.519Z,11.20
2022-12-04T09:38:28.524Z,11.10
2022-12-04T09:39:28.568Z,11.30
2022-12-04T09:40:36.937Z,11.90
2022-12-04T09:41:29.495Z,12.10
2022-12-04T09:42:28.607Z,11.90
2022-12-04T09:43:28.493Z,11.30
2022-12-04T09:44:28.448Z,10.10
2022-12-04T09:45:28.480Z,12.50
2022-12-04T09:46:28.521Z,11.50
2022-12-04T09:47:28.443Z,12.00
2022-12-04T09:48:28.434Z,11.20
2022-12-04T09:49:28.409Z,12.00
2022-12-04T09:50:28.373Z,12.40
2022-12-04T09:51:28.476Z,10.80
2022-12-04T09:52:28.404Z,10.20
2022-12-04T09:53:28.500Z,11.80
2022-12-04T09:54:28.354Z,11.60
2022-12-04T09:55:28.507Z,10.60
2022-12-04T09:56:28.344Z,11.00
2022-12-04T09:57:29.610Z,11.00
2022-12-04T09:58:28.312Z,10.40
2022-12-04T09:59:28.293Z,11.50
2022-12-04T10:00:28.278Z,11.70
2022-12-04T10:01:49.250Z,10.30
2022-12-04T10:02:28.454Z,11.50
2022-12-04T10:03:28.487Z,11.00
2022-12-04T10:04:28.255Z,11.20
2022-12-04T10:05:28.202Z,11.20
2022-12-04T10:06:28.382Z,11.70
2022-12-04T10:07:28.296Z,11.10
2022-12-04T10:08:28.251Z,11.80
2022-12-04T10:09:28.168Z,12.50
2022-12-04T10:10:28.199Z,14.10
2022-12-04T10:11:32.531Z,13.40
2022-12-04T10:12:28.130Z,12.10
2022-12-04T10:13:28.118Z,11.80
2022-12-04T10:14:28.175Z,10.10
2022-12-04T10:15:28.143Z,11.80
2022-12-04T10:16:28.147Z,11.70
2022-12-04T10:17:32.711Z,11.50
2022-12-04T10:18:28.056Z,12.90
2022-12-04T10:19:28.043Z,12.00
2022-12-04T10:20:28.025Z,12.70
2022-12-04T10:21:28.028Z,12.70
2022-12-04T10:22:28.005Z,9.90
2022-12-04T10:23:28.066Z,11.50
2022-12-04T10:24:27.979Z,12.20
2022-12-04T10:25:27.995Z,12.90
2022-12-04T10:26:27.982Z,12.00
2022-12-04T10:27:27.944Z,11.50
2022-12-04T10:28:28.102Z,11.70
2022-12-04T10:29:27.917Z,11.50
2022-12-04T10:30:27.954Z,11.70
2022-12-04T10:31:28.022Z,10.40
2022-12-04T10:32:27.936Z,11.90
2022-12-04T10:33:28.954Z,11.40
2022-12-04T10:34:27.869Z,11.00
2022-12-04T10:35:27.992Z,12.40
2022-12-04T10:36:27.849Z,12.70
2022-12-04T10:37:27.852Z,13.30
2022-12-04T10:38:27.849Z,13.70
2022-12-04T10:39:27.964Z,11.00
2022-12-04T10:40:27.836Z,12.80
2022-12-04T10:41:28.031Z,12.40
2022-12-04T10:42:27.781Z,10.80
2022-12-04T10:43:27.790Z,14.30
2022-12-04T10:44:27.783Z,12.00
2022-12-04T10:45:27.805Z,12.20
2022-12-04T10:46:27.822Z,11.90
2022-12-04T10:47:27.768Z,12.10
2022-12-04T10:48:27.823Z,11.50
2022-12-04T10:49:27.702Z,12.50
2022-12-04T10:50:27.842Z,12.30
2022-12-04T10:51:27.718Z,12.80
2022-12-04T10:52:28.870Z,12.90
2022-12-04T10:53:27.654Z,12.60
2022-12-04T10:54:27.645Z,10.80
2022-12-04T10:55:27.636Z,12.30
2022-12-04T10:56:27.669Z,12.50
2022-12-04T10:57:27.628Z,15.70
2022-12-04T10:58:27.692Z,12.00
2022-12-04T10:59:27.616Z,15.20
2022-12-04T11:00:27.701Z,12.50
2022-12-04T11:01:27.638Z,14.30
2022-12-04T11:02:28.093Z,13.40
2022-12-04T11:03:27.701Z,13.60
2022-12-04T11:04:27.848Z,13.40
2022-12-04T11:05:27.526Z,13.20
2022-12-04T11:06:27.535Z,12.90
2022-12-04T11:07:27.783Z,12.30
2022-12-04T11:08:27.581Z,14.00
2022-12-04T11:09:27.560Z,12.00
2022-12-04T11:10:27.498Z,13.00
2022-12-04T11:11:27.573Z,15.30
2022-12-04T11:12:27.467Z,15.90
2022-12-04T11:13:28.494Z,13.30
2022-12-04T11:14:27.418Z,12.80
2022-12-04T11:15:27.432Z,13.60
2022-12-04T11:16:27.553Z,10.80
2022-12-04T11:17:27.408Z,11.00
2022-12-04T11:18:27.397Z,12.00
2022-12-04T11:19:27.458Z,12.80
2022-12-04T11:20:27.370Z,11.60
2022-12-04T11:21:27.438Z,11.40
2022-12-04T11:22:27.339Z,12.20
2022-12-04T11:23:27.348Z,11.60
2022-12-04T11:24:27.300Z,12.30
2022-12-04T11:25:27.461Z,11.90
2022-12-04T11:26:27.287Z,13.40
2022-12-04T11:27:27.328Z,11.10
2022-12-04T11:28:41.158Z,10.80
2022-12-04T11:29:28.267Z,13.20
2022-12-04T11:30:27.378Z,11.90
2022-12-04T11:31:27.347Z,12.80
2022-12-04T11:32:27.298Z,11.60
2022-12-04T11:33:27.249Z,14.00
2022-12-04T11:34:28.339Z,11.70
2022-12-04T11:35:27.209Z,11.20
2022-12-04T11:36:27.383Z,11.60
2022-12-04T11:37:27.317Z,12.70
2022-12-04T11:38:27.342Z,11.70
2022-12-04T11:39:27.137Z,10.90
2022-12-04T11:40:27.144Z,11.00
2022-12-04T11:41:27.116Z,11.10
2022-12-04T11:42:27.223Z,11.60
2022-12-04T11:43:27.098Z,11.30
2022-12-04T11:44:27.173Z,11.50
2022-12-04T11:45:27.075Z,12.50
2022-12-04T11:46:27.256Z,13.00
2022-12-04T11:47:27.295Z,12.60
2022-12-04T11:48:27.052Z,12.50
2022-12-04T11:49:27.081Z,14.30
2022-12-04T11:50:27.032Z,12.50
2022-12-04T11:51:27.057Z,11.90
2022-12-04T11:52:27.098Z,13.10
2022-12-04T11:53:27.031Z,12.40
2022-12-04T11:54:26.974Z,12.70
2022-12-04T11:55:29.059Z,14.90
2022-12-04T11:56:26.942Z,14.80
2022-12-04T11:57:27.035Z,14.80
2022-12-04T11:58:26.930Z,15.50
2022-12-04T11:59:27.969Z,12.40
2022-12-04T12:00:26.898Z,12.70
2022-12-04T12:01:26.915Z,10.50
2022-12-04T12:02:27.208Z,12.30
2022-12-04T12:03:27.025Z,12.70
2022-12-04T12:04:27.874Z,12.50
2022-12-04T12:05:26.872Z,12.40
2022-12-04T12:06:26.839Z,12.40
2022-12-04T12:07:27.179Z,14.40
2022-12-04T12:08:26.807Z,13.90
2022-12-04T12:09:26.943Z,12.30
2022-12-04T12:10:26.815Z,14.20
2022-12-04T12:11:26.822Z,13.60
2022-12-04T12:12:26.778Z,12.30
2022-12-04T12:13:26.961Z,13.10
2022-12-04T12:14:26.736Z,13.60
2022-12-04T12:15:26.830Z,12.40
2022-12-04T12:16:26.782Z,13.10
2022-12-04T12:17:26.906Z,13.40
2022-12-04T12:18:26.698Z,13.00
2022-12-04T12:19:26.865Z,13.70
2022-12-04T12:20:26.685Z,13.70
2022-12-04T12:21:26.669Z,15.10
2022-12-04T12:22:26.668Z,12.20
2022-12-04T12:23:26.680Z,13.00
2022-12-04T12:24:26.843Z,13.30
2022-12-04T12:25:26.650Z,13.10
2022-12-04T12:26:26.626Z,14.30
2022-12-04T12:27:26.616Z,16.70
2022-12-04T12:28:26.655Z,12.90
2022-12-04T12:29:26.578Z,14.80
2022-12-04T12:30:26.587Z,14.60
2022-12-04T12:31:26.631Z,14.40
2022-12-04T12:32:26.742Z,15.20
2022-12-04T12:33:26.537Z,15.00
2022-12-04T12:34:26.696Z,15.70
2022-12-04T12:35:26.521Z,15.20
2022-12-04T12:36:26.707Z,14.90
2022-12-04T12:37:26.511Z,14.40
2022-12-04T12:38:27.579Z,14.70
2022-12-04T12:39:26.490Z,22.60
2022-12-04T12:40:26.559Z,21.20
2022-12-04T12:41:26.444Z,28.10
2022-12-04T12:42:26.451Z,18.80
2022-12-04T12:43:26.627Z,15.80
2022-12-04T12:44:26.406Z,18.00
2022-12-04T12:45:26.700Z,14.50
2022-12-04T12:46:26.419Z,16.50
2022-12-04T12:47:26.583Z,15.60
2022-12-04T12:48:26.384Z,18.80
2022-12-04T12:49:27.415Z,17.00
2022-12-04T12:50:26.347Z,14.80
2022-12-04T12:51:30.617Z,14.70
2022-12-04T12:52:26.324Z,15.10